熊本空港の過去48時間の天気

熊本空港 (Kumamoto)

現在時刻: 10/16 15:50 JST (10/16 06:50 UTC) 以下の時間は現地時間です。

過去48時間のMETAR気象情報
時間 風向 風速(m/s) 視程 気温(℃) 湿度(%) 気圧(hPa) 天気現象
16 15:00 不定 1 10km以上 22 57 1011
16 14:00 南西 3 10km以上 21 60 1011
16 13:00 南南西 2 10km以上 21 56 1012
16 12:00 南西 3 10km以上 21 60 1013
16 11:00 不定 1 10km以上 19 73 1013
16 10:00 2 10km以上 18 68 1014
16 09:00 不定 1 10km以上 17 77 1014
16 08:00 不定 1 10km以上 15 94 1015
16 07:00 北東 2 10km以上 13 100 1015
16 06:10 2 10km以上 14 88 1015
15 21:00 東北東 2 10km以上 14 100 1017
15 20:00 不定 1 10km以上 14 94 1017
15 19:00 不定 1 10km以上 17 68 1016
15 18:00 不定 1 10km以上 17 68 1017
15 17:00 南西 2 10km以上 21 60 1016
15 16:00 3 10km以上 22 50 1016
15 15:00 南西 3 10km以上 22 46 1016
15 14:00 不定 1 10km以上 23 41 1016
15 13:00 不定 2 10km以上 22 41 1017
15 12:00 西 2 10km以上 22 41 1018
15 11:00 南南西 3 10km以上 21 53 1018
15 10:00 不定 1 10km以上 19 64 1019
15 09:00 不定 1 10km以上 18 64 1019
15 08:00 不定 1 10km以上 16 82 1019
15 07:00 東南東 2 10km以上 15 88 1019
15 06:10 不定 1 10km以上 14 100 1019
14 21:00 不定 1 10km以上 18 56 1019
14 20:00 北東 2 10km以上 18 60 1019
14 19:00 東北東 5 10km以上 19 52 1019
14 18:00 2 10km以上 19 60 1019
14 17:00 2 10km以上 20 56 1019
14 16:00 3 10km以上 21 49 1019
RJFT 160600Z VRB02KT 9999 FEW040 BKN110 22/13 Q1011
RJFT 160500Z 23005KT 190V260 9999 FEW040 BKN130 21/13 Q1011
RJFT 160400Z 21004KT 170V250 9999 FEW040 BKN130 21/12 Q1012
RJFT 160300Z 22005KT 160V290 9999 FEW040 BKN120 21/13 Q1013
RJFT 160200Z VRB02KT CAVOK 19/14 Q1013
RJFT 160100Z 36003KT 310V040 CAVOK 18/12 Q1014
RJFT 160000Z VRB01KT CAVOK 17/13 Q1014
RJFT 152300Z VRB01KT CAVOK 15/14 Q1015
RJFT 152200Z 05004KT CAVOK 13/13 Q1015
RJFT 152110Z 36003KT 330V030 CAVOK 14/12 Q1015 RMK A2997
RJFT 151200Z 06004KT CAVOK 14/14 Q1017
RJFT 151100Z VRB02KT CAVOK 14/13 Q1017
RJFT 151000Z VRB02KT 9999 FEW040 17/11 Q1016
RJFT 150900Z VRB02KT 9999 FEW040 17/11 Q1017
RJFT 150800Z 23004KT 190V270 9999 FEW040 SCT/// 21/13 Q1016
RJFT 150700Z 19005KT 140V230 9999 FEW040 BKN/// 22/11 Q1016
RJFT 150600Z 22005KT 160V260 9999 FEW040 BKN/// 22/10 Q1016
RJFT 150500Z VRB02KT 9999 FEW040 BKN/// 23/09 Q1016
RJFT 150400Z VRB03KT 9999 FEW040 BKN/// 22/08 Q1017
RJFT 150300Z 27003KT 210V350 9999 FEW040 SCT100 BKN/// 22/08 Q1018
RJFT 150200Z 20005KT 160V220 9999 FEW040 BKN100 BKN/// 21/11 Q1018
RJFT 150100Z VRB01KT CAVOK 19/12 Q1019
RJFT 150000Z VRB02KT CAVOK 18/11 Q1019
RJFT 142300Z VRB02KT 9999 FEW050 BKN100 16/13 Q1019
RJFT 142200Z 12004KT 010V160 9999 FEW050 SCT080 BKN100 15/13 Q1019
RJFT 142110Z VRB01KT CAVOK 14/14 Q1019 RMK 5AC080 A3009
RJFT 141200Z VRB02KT 9999 FEW035 BKN050 BKN/// 18/09 Q1019
RJFT 141100Z 04004KT 9999 FEW035 BKN130 18/10 Q1019
RJFT 141000Z 06010KT 9999 FEW035 SCT060 BKN120 19/09 Q1019
RJFT 140900Z 10003KT 070V140 9999 FEW035 SCT120 BKN140 19/11 Q1019
RJFT 140800Z 17004KT 130V210 9999 FEW035 SCT060 BKN150 20/11 Q1019
RJFT 140700Z 17005KT 130V210 9999 FEW035 SCT060 BKN/// 21/10 Q1019